Time;durP1;ratioP1;P1;durP2;ratioP2;P2;SDS_P1;SDS_P2;PMS_P1;PMS_P2;Temp;Humidity;BMP_temperature;BMP_pressure;BME280_temperature;BME280_humidity;BME280_pressure;Samples;Min_cycle;Max_cycle;Signal;HPM_P1;HPM_P2
2022/07/24 00:02:24;;;;;;;10.68;9.73;;;;;;;-141.48;100.00;69781.59;4970195;29;20027;-67
2022/07/24 00:04:56;;;;;;;8.65;8.05;;;;;;;-141.48;100.00;69781.59;4969630;29;20034;-68
2022/07/24 00:07:27;;;;;;;8.88;8.27;;;;;;;-141.48;100.00;69781.59;4970263;29;20026;-68
2022/07/24 00:09:58;;;;;;;9.75;8.82;;;;;;;-141.48;100.00;69781.59;4970170;29;20489;-67
2022/07/24 00:12:28;;;;;;;11.18;10.40;;;;;;;-141.48;100.00;69781.59;4970049;29;20038;-68
2022/07/24 00:14:58;;;;;;;9.75;8.52;;;;;;;-141.48;100.00;69781.59;4968391;29;20252;-67
2022/07/24 00:17:29;;;;;;;12.73;11.57;;;;;;;-141.48;100.00;69781.59;4969720;29;20118;-68
2022/07/24 00:19:59;;;;;;;10.27;9.38;;;;;;;-141.48;100.00;69781.59;4970013;29;20033;-68
2022/07/24 00:22:30;;;;;;;10.98;10.13;;;;;;;-141.48;100.00;69781.59;4969947;29;20043;-68
2022/07/24 00:25:01;;;;;;;11.43;10.68;;;;;;;-141.48;100.00;69781.59;4969465;29;20110;-68
2022/07/24 00:27:31;;;;;;;14.20;12.93;;;;;;;-141.48;100.00;69781.59;4969836;29;20041;-68
2022/07/24 00:30:03;;;;;;;12.00;11.18;;;;;;;-141.48;100.00;69781.59;4969764;29;20034;-68
2022/07/24 00:32:33;;;;;;;12.13;11.27;;;;;;;-141.48;100.00;69781.59;4968910;29;20030;-68
2022/07/24 00:35:04;;;;;;;14.85;13.70;;;;;;;-141.48;100.00;69781.59;4969340;29;20076;-67
2022/07/24 00:37:34;;;;;;;12.48;11.38;;;;;;;-141.48;100.00;69781.59;4969556;29;20464;-68
2022/07/24 00:40:05;;;;;;;13.60;12.60;;;;;;;-141.48;100.00;69781.59;4968488;29;20027;-68
2022/07/24 00:42:36;;;;;;;15.15;14.02;;;;;;;-141.48;100.00;69781.59;4969378;29;20037;-68
2022/07/24 00:45:07;;;;;;;14.70;13.40;;;;;;;-141.48;100.00;69781.59;4969211;29;20452;-68
2022/07/24 00:47:37;;;;;;;15.50;14.27;;;;;;;-141.48;100.00;69781.59;4969736;29;20038;-68
2022/07/24 00:50:08;;;;;;;15.43;14.40;;;;;;;-141.48;100.00;69781.59;4969815;29;20117;-68
2022/07/24 00:52:39;;;;;;;16.60;15.45;;;;;;;-141.48;100.00;69781.59;4968038;29;20031;-68
2022/07/24 00:55:10;;;;;;;16.13;14.93;;;;;;;-141.48;100.00;69781.59;4969374;29;20062;-68
2022/07/24 00:57:43;;;;;;;16.48;14.98;;;;;;;-141.48;100.00;69781.59;4969408;29;20065;-67
2022/07/24 01:00:15;;;;;;;15.43;14.23;;;;;;;-141.48;100.00;69781.59;4969522;29;20127;-67
2022/07/24 01:02:45;;;;;;;17.33;15.88;;;;;;;-141.48;100.00;69781.59;4969650;29;20034;-67
2022/07/24 01:05:17;;;;;;;17.40;16.02;;;;;;;-141.48;100.00;69781.59;4969029;29;20503;-68
2022/07/24 01:07:47;;;;;;;16.48;15.10;;;;;;;-141.48;100.00;69781.59;4969563;29;20396;-67
2022/07/24 01:10:18;;;;;;;16.45;15.38;;;;;;;-141.48;100.00;69781.59;4969300;29;20038;-67
2022/07/24 01:12:48;;;;;;;16.42;15.02;;;;;;;-141.48;100.00;69781.59;4969421;29;20094;-67
2022/07/24 01:15:19;;;;;;;17.30;15.85;;;;;;;-141.48;100.00;69781.59;4972284;29;20404;-68
2022/07/24 01:17:49;;;;;;;17.58;16.00;;;;;;;-141.48;100.00;69781.59;4972897;29;20039;-67
2022/07/24 01:20:20;;;;;;;20.13;18.38;;;;;;;-141.48;100.00;69781.59;4972783;29;20030;-68
2022/07/24 01:22:50;;;;;;;17.35;15.95;;;;;;;-141.48;100.00;69781.59;4972804;29;20031;-67
2022/07/24 01:25:21;;;;;;;18.83;17.38;;;;;;;-141.48;100.00;69781.59;4972437;29;20503;-67
2022/07/24 01:27:51;;;;;;;20.10;18.30;;;;;;;-141.48;100.00;69781.59;4972776;29;20030;-68
2022/07/24 01:30:22;;;;;;;21.10;19.08;;;;;;;-141.48;100.00;69781.59;4972752;29;20191;-67
2022/07/24 01:32:52;;;;;;;17.55;16.23;;;;;;;-141.48;100.00;69781.59;4972740;29;20027;-67
2022/07/24 01:35:22;;;;;;;20.45;18.77;;;;;;;-141.48;100.00;69781.59;4972196;29;20030;-67
2022/07/24 01:37:53;;;;;;;18.55;16.83;;;;;;;-141.48;100.00;69781.59;4972581;29;20058;-68
2022/07/24 01:40:24;;;;;;;18.08;16.42;;;;;;;-141.48;100.00;69781.59;4971407;29;20054;-68
2022/07/24 01:42:54;;;;;;;18.67;17.02;;;;;;;-141.48;100.00;69781.59;4972495;29;20031;-67
2022/07/24 01:45:25;;;;;;;21.17;19.58;;;;;;;-141.48;100.00;69781.59;4972192;29;20026;-68
2022/07/24 01:47:55;;;;;;;17.63;16.42;;;;;;;-141.48;100.00;69781.59;4972133;29;20038;-67
2022/07/24 01:50:26;;;;;;;23.05;20.83;;;;;;;-141.48;100.00;69781.59;4972468;29;20027;-68
2022/07/24 01:52:57;;;;;;;21.48;19.63;;;;;;;-141.48;100.00;69781.59;4972308;29;20433;-67
2022/07/24 01:55:28;;;;;;;21.55;19.30;;;;;;;-141.48;100.00;69781.59;4972072;29;20055;-68
2022/07/24 01:57:58;;;;;;;19.58;18.05;;;;;;;-141.48;100.00;69781.59;4972133;29;20066;-68
2022/07/24 02:00:29;;;;;;;23.73;21.63;;;;;;;-141.48;100.00;69781.59;4971887;29;20041;-68
2022/07/24 02:02:59;;;;;;;21.85;19.42;;;;;;;-141.48;100.00;69781.59;4972416;29;20034;-68
2022/07/24 02:05:29;;;;;;;22.60;20.70;;;;;;;-141.48;100.00;69781.59;4972007;29;20079;-68
2022/07/24 02:08:00;;;;;;;19.25;17.85;;;;;;;-141.48;100.00;69781.59;4971893;29;20019;-67
2022/07/24 02:10:31;;;;;;;20.70;19.13;;;;;;;-141.48;100.00;69781.59;4972093;29;20034;-67
2022/07/24 02:13:01;;;;;;;20.45;18.95;;;;;;;-141.48;100.00;69781.59;4972029;29;20034;-68
2022/07/24 02:15:32;;;;;;;19.63;18.05;;;;;;;-141.48;100.00;69781.59;4971807;29;20054;-68
2022/07/24 02:18:03;;;;;;;23.15;21.27;;;;;;;-141.48;100.00;69781.59;4971677;29;20023;-67
2022/07/24 02:20:33;;;;;;;24.27;22.35;;;;;;;-141.48;100.00;69781.59;4971648;29;20030;-67
2022/07/24 02:23:04;;;;;;;23.52;21.20;;;;;;;-141.48;100.00;69781.59;4971929;29;20065;-68
2022/07/24 02:25:34;;;;;;;24.52;22.30;;;;;;;-141.48;100.00;69781.59;4970383;29;20050;-67
2022/07/24 02:28:05;;;;;;;23.05;21.38;;;;;;;-141.48;100.00;69781.59;4971918;29;20023;-68
2022/07/24 02:30:35;;;;;;;31.25;23.92;;;;;;;-141.48;100.00;69781.59;4971960;29;20095;-68
2022/07/24 02:33:05;;;;;;;27.35;24.70;;;;;;;-141.48;100.00;69781.59;4971751;29;20030;-67
2022/07/24 02:35:37;;;;;;;29.00;26.35;;;;;;;-141.48;100.00;69781.59;4971382;29;20093;-68
2022/07/24 02:38:08;;;;;;;28.20;25.85;;;;;;;-141.48;100.00;69781.59;4971391;29;20047;-68
2022/07/24 02:40:39;;;;;;;30.77;26.63;;;;;;;-141.48;100.00;69781.59;4971710;29;20107;-68
2022/07/24 02:43:09;;;;;;;28.15;25.45;;;;;;;-141.48;100.00;69781.59;4970465;29;20027;-68
2022/07/24 02:45:39;;;;;;;33.78;30.70;;;;;;;-141.48;100.00;69781.59;4971246;29;20035;-67
2022/07/24 02:48:10;;;;;;;34.28;31.17;;;;;;;-141.48;100.00;69781.59;4971461;29;20381;-68
2022/07/24 02:50:40;;;;;;;33.97;30.67;;;;;;;-141.48;100.00;69781.59;4971247;29;20038;-68
2022/07/24 02:53:10;;;;;;;36.92;33.20;;;;;;;-141.48;100.00;69781.59;4971267;29;20089;-67
2022/07/24 02:55:41;;;;;;;40.47;36.65;;;;;;;-141.48;100.00;69781.59;4970890;29;20050;-67
2022/07/24 02:58:11;;;;;;;41.33;36.85;;;;;;;-141.48;100.00;69781.59;4971258;29;20114;-67
2022/07/24 03:00:42;;;;;;;45.50;40.75;;;;;;;-141.48;100.00;69781.59;4971018;29;20042;-67
2022/07/24 03:03:12;;;;;;;44.70;40.08;;;;;;;-141.48;100.00;69781.59;4969661;29;20117;-67
2022/07/24 03:05:43;;;;;;;44.30;40.08;;;;;;;-141.48;100.00;69781.59;4970753;29;20058;-67
2022/07/24 03:08:13;;;;;;;43.53;39.10;;;;;;;-141.48;100.00;69781.59;4971190;29;20114;-67
2022/07/24 03:10:44;;;;;;;46.92;42.80;;;;;;;-141.48;100.00;69781.59;4970933;29;20034;-67
2022/07/24 03:13:15;;;;;;;48.92;44.25;;;;;;;-141.48;100.00;69781.59;4970820;29;20030;-67
2022/07/24 03:15:45;;;;;;;47.05;42.47;;;;;;;-141.48;100.00;69781.59;4970562;29;20385;-68
2022/07/24 03:18:16;;;;;;;50.80;45.47;;;;;;;-141.48;100.00;69781.59;4970687;29;20027;-66
2022/07/24 03:20:46;;;;;;;53.42;48.53;;;;;;;-141.48;100.00;69781.59;4970720;29;20035;-66
2022/07/24 03:23:17;;;;;;;52.58;47.30;;;;;;;-141.48;100.00;69781.59;4969798;29;20030;-66
2022/07/24 03:25:48;;;;;;;53.00;47.75;;;;;;;-141.48;100.00;69781.59;4970701;29;20126;-67
2022/07/24 03:28:18;;;;;;;53.47;47.83;;;;;;;-141.48;100.00;69781.59;4970766;29;20103;-67
2022/07/24 03:30:48;;;;;;;52.70;47.20;;;;;;;-141.48;100.00;69781.59;4970746;29;20031;-67
2022/07/24 03:33:19;;;;;;;46.67;41.92;;;;;;;-141.48;100.00;69781.59;4970677;29;20023;-67
2022/07/24 03:35:49;;;;;;;50.40;45.85;;;;;;;-141.48;100.00;69781.59;4970422;29;20031;-67
2022/07/24 03:38:20;;;;;;;55.55;49.58;;;;;;;-141.48;100.00;69781.59;4970143;29;20027;-67
2022/07/24 03:40:50;;;;;;;58.35;52.40;;;;;;;-141.48;100.00;69781.59;4970303;29;20031;-67
2022/07/24 03:43:21;;;;;;;58.75;52.75;;;;;;;-141.48;100.00;69781.59;4969352;29;20035;-67
2022/07/24 03:45:51;;;;;;;59.85;53.83;;;;;;;-141.48;100.00;69781.59;4970552;29;20027;-67
2022/07/24 03:48:22;;;;;;;57.30;50.50;;;;;;;-141.48;100.00;69781.59;4970449;29;20030;-67
2022/07/24 03:50:52;;;;;;;62.60;56.17;;;;;;;-141.48;100.00;69781.59;4970016;29;20029;-67
2022/07/24 03:53:23;;;;;;;53.85;48.63;;;;;;;-141.48;100.00;69781.59;4969977;29;20037;-67
2022/07/24 03:55:53;;;;;;;57.90;51.83;;;;;;;-141.48;100.00;69781.59;4970121;29;20034;-67
2022/07/24 03:58:23;;;;;;;59.03;53.40;;;;;;;-141.48;100.00;69781.59;4970334;29;20027;-67
2022/07/24 04:00:54;;;;;;;60.88;54.85;;;;;;;-141.48;100.00;69781.59;4968959;29;20074;-67
2022/07/24 04:03:24;;;;;;;53.90;48.67;;;;;;;-141.48;100.00;69781.59;4969832;29;20034;-68
2022/07/24 04:05:55;;;;;;;58.58;51.85;;;;;;;-141.48;100.00;69781.59;4970273;29;20164;-67
2022/07/24 04:08:25;;;;;;;63.35;51.20;;;;;;;-141.48;100.00;69781.59;4968804;29;20030;-67
2022/07/24 04:10:59;;;;;;;55.33;49.72;;;;;;;-141.48;100.00;69781.59;4968695;29;20042;-67
2022/07/24 04:13:30;;;;;;;56.03;50.55;;;;;;;-141.48;100.00;69781.59;4969721;29;20034;-67
2022/07/24 04:16:01;;;;;;;55.10;49.25;;;;;;;-141.48;100.00;69781.59;4968340;29;20034;-67
2022/07/24 04:18:31;;;;;;;52.00;46.17;;;;;;;-141.48;100.00;69781.59;4969873;29;20177;-67
2022/07/24 04:21:01;;;;;;;53.15;44.63;;;;;;;-141.48;100.00;69781.59;4970153;29;20042;-67
2022/07/24 04:23:32;;;;;;;56.47;50.58;;;;;;;-141.48;100.00;69781.59;4969746;29;20111;-67
2022/07/24 04:26:03;;;;;;;50.47;45.25;;;;;;;-141.48;100.00;69781.59;4970012;29;20038;-67
2022/07/24 04:28:34;;;;;;;56.30;50.35;;;;;;;-141.48;100.00;69781.59;4969756;29;20138;-67
2022/07/24 04:31:04;;;;;;;52.65;42.65;;;;;;;-141.48;100.00;69781.59;4969898;29;20117;-68
2022/07/24 04:33:35;;;;;;;52.88;47.17;;;;;;;-141.48;100.00;69781.59;4968156;29;20159;-67
2022/07/24 04:36:06;;;;;;;46.63;41.97;;;;;;;-141.48;100.00;69781.59;4969894;29;20035;-66
2022/07/24 04:38:36;;;;;;;46.30;41.83;;;;;;;-141.48;100.00;69781.59;4968435;29;20388;-67
2022/07/24 04:41:06;;;;;;;46.13;41.60;;;;;;;-141.48;100.00;69781.59;4969872;29;20397;-67
2022/07/24 04:43:37;;;;;;;47.60;43.00;;;;;;;-141.48;100.00;69781.59;4969335;29;20043;-67
2022/07/24 04:46:08;;;;;;;42.40;38.20;;;;;;;-141.48;100.00;69781.59;4969645;29;20035;-67
2022/07/24 04:48:38;;;;;;;45.15;40.85;;;;;;;-141.48;100.00;69781.59;4970426;29;20073;-68
2022/07/24 04:51:09;;;;;;;45.08;41.28;;;;;;;-141.48;100.00;69781.59;4987807;24;20037;-64
2022/07/24 04:53:39;;;;;;;44.05;39.50;;;;;;;-141.48;100.00;69781.59;4988941;29;20556;-64
2022/07/24 04:56:10;;;;;;;44.53;37.38;;;;;;;-141.48;100.00;69781.59;4972134;29;20056;-63
2022/07/24 04:58:40;;;;;;;38.60;34.95;;;;;;;-141.48;100.00;69781.59;4971744;29;20056;-63
2022/07/24 05:01:11;;;;;;;39.33;35.60;;;;;;;-141.48;100.00;69781.59;4971377;29;20476;-64
2022/07/24 05:03:41;;;;;;;39.72;35.97;;;;;;;-141.48;100.00;69781.59;4971400;29;20026;-64
2022/07/24 05:06:11;;;;;;;35.15;31.45;;;;;;;-141.48;100.00;69781.59;4971594;29;20070;-63
2022/07/24 05:08:42;;;;;;;37.97;34.08;;;;;;;-141.48;100.00;69781.59;4972981;29;20384;-64
2022/07/24 05:11:12;;;;;;;34.78;31.42;;;;;;;-141.48;100.00;69781.59;4971737;29;20027;-64
2022/07/24 05:13:43;;;;;;;36.13;32.20;;;;;;;-141.48;100.00;69781.59;4954653;29;20030;-63
2022/07/24 05:16:13;;;;;;;36.00;32.45;;;;;;;-141.48;100.00;69781.59;4971517;29;20034;-64
2022/07/24 05:18:43;;;;;;;34.45;31.27;;;;;;;-141.48;100.00;69781.59;4971562;29;20026;-64
2022/07/24 05:21:16;;;;;;;36.75;33.50;;;;;;;-141.48;100.00;69781.59;4971167;29;20587;-63
2022/07/24 05:23:47;;;;;;;37.33;33.67;;;;;;;-141.48;100.00;69781.59;4970652;29;20031;-64
2022/07/24 05:26:17;;;;;;;34.97;31.38;;;;;;;-141.48;100.00;69781.59;4970772;29;20076;-63
2022/07/24 05:28:48;;;;;;;35.10;31.88;;;;;;;-141.48;100.00;69781.59;4970950;29;20050;-63
2022/07/24 05:31:18;;;;;;;33.70;30.60;;;;;;;-141.48;100.00;69781.59;4939515;29;20122;-63
2022/07/24 05:33:48;;;;;;;37.65;33.65;;;;;;;-141.48;100.00;69781.59;4970407;29;20030;-63
2022/07/24 05:36:19;;;;;;;34.83;31.42;;;;;;;-141.48;100.00;69781.59;4970771;29;20088;-63
2022/07/24 05:38:50;;;;;;;35.13;31.83;;;;;;;-141.48;100.00;69781.59;4954029;29;20027;-63
2022/07/24 05:41:20;;;;;;;34.03;30.95;;;;;;;-141.48;100.00;69781.59;4970756;29;20037;-63
2022/07/24 05:43:50;;;;;;;33.25;30.30;;;;;;;-141.48;100.00;69781.59;4970258;29;20474;-63
2022/07/24 05:46:21;;;;;;;29.52;26.75;;;;;;;-141.48;100.00;69781.59;4970684;29;20248;-63
2022/07/24 05:48:51;;;;;;;31.55;28.50;;;;;;;-141.48;100.00;69781.59;4970778;29;20401;-63
2022/07/24 05:51:22;;;;;;;34.25;29.67;;;;;;;-141.48;100.00;69781.59;4970020;29;20395;-63
2022/07/24 05:53:52;;;;;;;31.50;28.98;;;;;;;-141.48;100.00;69781.59;4953712;29;20023;-63
2022/07/24 05:56:24;;;;;;;28.98;26.45;;;;;;;-141.48;100.00;69781.59;4970043;29;20425;-63
2022/07/24 05:58:54;;;;;;;26.77;23.98;;;;;;;-141.48;100.00;69781.59;4969998;29;20039;-63
2022/07/24 06:01:24;;;;;;;29.63;26.13;;;;;;;-141.48;100.00;69781.59;4969815;29;20125;-63
2022/07/24 06:03:55;;;;;;;29.13;25.05;;;;;;;-141.48;100.00;69781.59;4953178;29;20565;-62
2022/07/24 06:06:25;;;;;;;26.35;23.77;;;;;;;-141.48;100.00;69781.59;4969902;29;20035;-62
2022/07/24 06:08:56;;;;;;;27.77;25.13;;;;;;;-141.48;100.00;69781.59;4970139;29;20039;-62
2022/07/24 06:11:26;;;;;;;28.30;25.75;;;;;;;-141.48;100.00;69781.59;4969884;29;20110;-62
2022/07/24 06:13:56;;;;;;;28.17;25.67;;;;;;;-141.48;100.00;69781.59;4969777;29;20108;-62
2022/07/24 06:16:27;;;;;;;24.02;21.17;;;;;;;-141.48;100.00;69781.59;4969938;29;20154;-62
2022/07/24 06:18:57;;;;;;;24.70;22.73;;;;;;;-141.48;100.00;69781.59;4970260;29;20492;-63
2022/07/24 06:21:28;;;;;;;20.50;18.48;;;;;;;-141.48;100.00;69781.59;4970850;29;20037;-63
2022/07/24 06:23:58;;;;;;;22.35;20.10;;;;;;;-141.48;100.00;69781.59;4969724;29;20030;-63
2022/07/24 06:26:28;;;;;;;17.42;15.85;;;;;;;-141.48;100.00;69781.59;4970232;29;20033;-62
2022/07/24 06:28:59;;;;;;;21.55;19.77;;;;;;;-141.48;100.00;69781.59;4970177;29;20100;-62
2022/07/24 06:31:29;;;;;;;20.58;18.90;;;;;;;-141.48;100.00;69781.59;4953853;29;20049;-62
2022/07/24 06:34:00;;;;;;;17.67;15.98;;;;;;;-141.48;100.00;69781.59;4969877;29;20428;-63
2022/07/24 06:36:30;;;;;;;15.00;13.93;;;;;;;-141.48;100.00;69781.59;4969734;29;20437;-63
2022/07/24 06:39:01;;;;;;;14.98;13.88;;;;;;;-141.48;100.00;69781.59;4970075;29;20399;-62
2022/07/24 06:41:31;;;;;;;15.38;13.98;;;;;;;-141.48;100.00;69781.59;4970103;29;20385;-62
2022/07/24 06:44:02;;;;;;;12.20;11.40;;;;;;;-141.48;100.00;69781.59;4970045;29;20109;-62
2022/07/24 06:46:33;;;;;;;12.88;11.98;;;;;;;-141.48;100.00;69781.59;4939619;29;20035;-63
2022/07/24 06:49:03;;;;;;;12.52;11.32;;;;;;;-141.48;100.00;69781.59;4971127;29;20027;-62
2022/07/24 06:51:34;;;;;;;9.23;8.45;;;;;;;-141.48;100.00;69781.59;4973571;29;20045;-63
2022/07/24 06:54:04;;;;;;;10.15;8.98;;;;;;;-141.48;100.00;69781.59;4973758;29;20070;-63
2022/07/24 06:56:35;;;;;;;7.78;7.18;;;;;;;-141.48;100.00;69781.59;4973889;29;20460;-63
2022/07/24 06:59:05;;;;;;;10.60;9.55;;;;;;;-141.48;100.00;69781.59;4973750;29;20039;-63
2022/07/24 07:01:35;;;;;;;9.68;8.70;;;;;;;-141.48;100.00;69781.59;4974421;29;20026;-63
2022/07/24 07:04:06;;;;;;;8.30;7.53;;;;;;;-141.48;100.00;69781.59;4973031;29;20035;-63
2022/07/24 07:06:36;;;;;;;9.07;8.38;;;;;;;-141.48;100.00;69781.59;4956856;29;20117;-61
2022/07/24 07:09:06;;;;;;;9.13;8.40;;;;;;;-141.48;100.00;69781.59;4972150;29;20038;-63
2022/07/24 07:11:37;;;;;;;7.78;7.05;;;;;;;-141.48;100.00;69781.59;4955462;29;20039;-63
2022/07/24 07:14:07;;;;;;;9.07;8.02;;;;;;;-141.48;100.00;69781.59;4971603;29;20583;-63
2022/07/24 07:16:38;;;;;;;21.15;10.25;;;;;;;-141.48;100.00;69781.59;4954964;29;20027;-63
2022/07/24 07:19:08;;;;;;;8.13;7.38;;;;;;;-141.48;100.00;69781.59;4955012;29;20417;-63
2022/07/24 07:21:39;;;;;;;6.85;6.43;;;;;;;-141.48;100.00;69781.59;4971957;29;20494;-63
2022/07/24 07:24:09;;;;;;;7.20;6.07;;;;;;;-141.48;100.00;69781.59;4970996;29;20031;-63
2022/07/24 07:26:39;;;;;;;5.18;4.88;;;;;;;-141.48;100.00;69781.59;4971558;29;20027;-62
2022/07/24 07:29:10;;;;;;;6.32;5.57;;;;;;;-141.48;100.00;69781.59;4971436;29;20027;-63
2022/07/24 07:31:40;;;;;;;7.32;6.75;;;;;;;-141.48;100.00;69781.59;4972048;29;20030;-63
2022/07/24 07:34:11;;;;;;;6.82;6.30;;;;;;;-141.48;100.00;69781.59;4971484;29;20401;-63
2022/07/24 07:36:41;;;;;;;6.60;6.07;;;;;;;-141.48;100.00;69781.59;4971116;29;20126;-63
2022/07/24 07:39:12;;;;;;;7.05;6.45;;;;;;;-141.48;100.00;69781.59;4970892;29;20425;-63
2022/07/24 07:41:42;;;;;;;5.95;5.60;;;;;;;-141.48;100.00;69781.59;4970279;29;20073;-63
2022/07/24 07:44:13;;;;;;;11.38;6.60;;;;;;;-141.48;100.00;69781.59;4970493;29;20037;-63
2022/07/24 07:46:43;;;;;;;6.90;6.40;;;;;;;-141.48;100.00;69781.59;4970840;29;20043;-63
2022/07/24 07:49:14;;;;;;;8.20;7.32;;;;;;;-141.48;100.00;69781.59;4969995;29;20440;-63
2022/07/24 07:51:47;;;;;;;7.32;6.63;;;;;;;-141.48;100.00;69781.59;4970000;29;20038;-64
2022/07/24 07:54:17;;;;;;;7.63;7.03;;;;;;;-141.48;100.00;69781.59;4953177;29;20031;-63
2022/07/24 07:56:48;;;;;;;6.05;5.75;;;;;;;-141.48;100.00;69781.59;4969295;29;20527;-63
2022/07/24 07:59:18;;;;;;;7.15;5.22;;;;;;;-141.48;100.00;69781.59;4953099;29;20023;-63
2022/07/24 08:01:49;;;;;;;7.35;6.57;;;;;;;-141.48;100.00;69781.59;4952573;29;20513;-64
2022/07/24 08:04:19;;;;;;;7.03;6.45;;;;;;;-141.48;100.00;69781.59;4968736;29;20031;-61
2022/07/24 08:06:50;;;;;;;8.43;7.55;;;;;;;-141.48;100.00;69781.59;4968823;29;20046;-63
2022/07/24 08:09:20;;;;;;;7.38;6.82;;;;;;;-141.48;100.00;69781.59;4968529;29;20062;-63
2022/07/24 08:11:51;;;;;;;7.72;5.28;;;;;;;-141.48;100.00;69781.59;4968730;29;20030;-63
2022/07/24 08:14:21;;;;;;;8.20;4.97;;;;;;;-141.48;100.00;69781.59;4968081;29;20031;-63
2022/07/24 08:16:52;;;;;;;4.82;4.50;;;;;;;-141.48;100.00;69781.59;4968612;29;20113;-63
2022/07/24 08:19:22;;;;;;;4.43;3.97;;;;;;;-141.48;100.00;69781.59;4968548;29;20062;-64
2022/07/24 08:21:52;;;;;;;3.95;3.75;;;;;;;-141.48;100.00;69781.59;4968374;29;20019;-63
2022/07/24 08:24:23;;;;;;;4.55;4.25;;;;;;;-141.48;100.00;69781.59;4967092;29;20099;-63
2022/07/24 08:26:53;;;;;;;4.57;4.28;;;;;;;-141.48;100.00;69781.59;4968246;29;20357;-63
2022/07/24 08:29:25;;;;;;;4.65;4.40;;;;;;;-141.48;100.00;69781.59;4968094;29;20071;-63
2022/07/24 08:31:55;;;;;;;4.07;3.83;;;;;;;-141.48;100.00;69781.59;4967821;29;20517;-63
2022/07/24 08:34:26;;;;;;;3.92;3.72;;;;;;;-141.48;100.00;69781.59;4967336;29;20065;-63
2022/07/24 08:36:56;;;;;;;3.92;3.72;;;;;;;-141.48;100.00;69781.59;4967921;29;20031;-64
2022/07/24 08:39:26;;;;;;;5.10;4.63;;;;;;;-141.48;100.00;69781.59;4967897;29;20086;-63
2022/07/24 08:41:57;;;;;;;5.18;3.60;;;;;;;-141.48;100.00;69781.59;4968477;29;20531;-62
2022/07/24 08:44:27;;;;;;;4.50;4.03;;;;;;;-141.48;100.00;69781.59;4968029;29;20038;-63
2022/07/24 08:46:58;;;;;;;3.65;3.45;;;;;;;-141.48;100.00;69781.59;4969344;29;20460;-62
2022/07/24 08:49:31;;;;;;;3.47;3.25;;;;;;;-141.48;100.00;69781.59;4969815;29;20041;-63
2022/07/24 08:52:04;;;;;;;5.60;3.90;;;;;;;-141.48;100.00;69781.59;4938395;29;20129;-64
2022/07/24 08:54:35;;;;;;;3.47;3.30;;;;;;;-141.48;100.00;69781.59;4969332;29;20033;-63
2022/07/24 08:57:06;;;;;;;3.80;3.60;;;;;;;-141.48;100.00;69781.59;4953478;29;20280;-64
2022/07/24 08:59:36;;;;;;;3.65;3.45;;;;;;;-141.48;100.00;69781.59;4969774;29;20496;-64
2022/07/24 09:02:07;;;;;;;3.63;3.28;;;;;;;-141.48;100.00;69781.59;4953642;29;20026;-61
2022/07/24 09:04:49;;;;;;;3.15;2.95;;;;;;;-141.48;100.00;69781.59;4970216;29;20049;-64
2022/07/24 09:07:24;;;;;;;3.53;3.33;;;;;;;-141.48;100.00;69781.59;4970127;29;20031;-64
2022/07/24 09:10:01;;;;;;;3.60;3.30;;;;;;;-141.48;100.00;69781.59;4970599;29;20377;-66
2022/07/24 09:12:49;;;;;;;3.58;3.28;;;;;;;-141.48;100.00;69781.59;4970880;29;20095;-63
2022/07/24 09:15:29;;;;;;;4.57;4.38;;;;;;;-141.48;100.00;69781.59;4969860;29;20038;-62
2022/07/24 09:18:00;;;;;;;4.45;4.20;;;;;;;-141.48;100.00;69781.59;4969556;29;20113;-63
2022/07/24 09:20:30;;;;;;;3.83;3.63;;;;;;;-141.48;100.00;69781.59;4952986;29;20126;-65
2022/07/24 09:23:01;;;;;;;4.13;2.92;;;;;;;-141.48;100.00;69781.59;4969461;29;20035;-63
2022/07/24 09:25:33;;;;;;;3.55;3.25;;;;;;;-141.48;100.00;69781.59;4969220;29;20031;-63
2022/07/24 09:28:04;;;;;;;6.10;4.18;;;;;;;-141.48;100.00;69781.59;4969410;29;20088;-64
2022/07/24 09:30:38;;;;;;;3.70;3.50;;;;;;;-141.48;100.00;69781.59;4970636;29;20026;-61
2022/07/24 09:33:11;;;;;;;3.20;3.00;;;;;;;-141.48;100.00;69781.59;4971813;29;20042;-62
2022/07/24 09:35:50;;;;;;;3.80;3.70;;;;;;;-141.48;100.00;69781.59;5116297;24;20055;-92
2022/07/24 09:38:22;;;;;;;4.80;3.38;;;;;;;-141.48;100.00;69781.59;4980892;29;20034;-91
2022/07/24 09:40:55;;;;;;;3.70;3.35;;;;;;;-141.48;100.00;69781.59;4982025;29;20042;-91
2022/07/24 09:43:34;;;;;;;4.63;3.70;;;;;;;-141.48;100.00;69781.59;4963673;29;20429;-92
2022/07/24 09:46:12;;;;;;;3.45;3.28;;;;;;;-141.48;100.00;69781.59;4965157;29;20056;-91
2022/07/24 09:48:53;;;;;;;3.53;3.33;;;;;;;-141.48;100.00;69781.59;4980475;29;20091;-91
2022/07/24 09:51:26;;;;;;;4.60;4.30;;;;;;;-141.48;100.00;69781.59;4980125;29;20033;-91
2022/07/24 09:53:59;;;;;;;3.83;3.42;;;;;;;-141.48;100.00;69781.59;4965251;29;20052;-90
2022/07/24 09:56:30;;;;;;;3.05;2.85;;;;;;;-141.48;100.00;69781.59;4965125;29;20118;-91
2022/07/24 09:59:02;;;;;;;3.05;2.85;;;;;;;-141.48;100.00;69781.59;4980360;29;20062;-91
2022/07/24 10:01:34;;;;;;;3.17;2.97;;;;;;;-141.48;100.00;69781.59;4964678;29;20034;-92
2022/07/24 10:04:06;;;;;;;3.80;3.60;;;;;;;-141.48;100.00;69781.59;4980162;29;20065;-92
2022/07/24 10:06:38;;;;;;;3.50;3.33;;;;;;;-141.48;100.00;69781.59;4981969;29;20039;-92
2022/07/24 10:09:12;;;;;;;3.10;2.85;;;;;;;-141.48;100.00;69781.59;4986667;29;20082;-92
2022/07/24 10:11:44;;;;;;;3.65;3.45;;;;;;;-141.48;100.00;69781.59;4990894;29;20041;-91
2022/07/24 10:14:14;;;;;;;3.20;3.08;;;;;;;-141.48;100.00;69781.59;4990133;29;20098;-91
2022/07/24 10:16:56;;;;;;;3.38;3.13;;;;;;;-141.48;100.00;69781.59;4971825;29;20037;-90
2022/07/24 10:19:38;;;;;;;3.38;3.05;;;;;;;-141.48;100.00;69781.59;4975729;24;20142;-60
2022/07/24 10:22:11;;;;;;;2.60;2.50;;;;;;;-141.48;100.00;69781.59;4971383;29;20069;-62
2022/07/24 10:24:54;;;;;;;2.38;2.28;;;;;;;-141.48;100.00;69781.59;4970914;29;20071;-61
2022/07/24 10:27:35;;;;;;;2.67;2.58;;;;;;;-141.48;100.00;69781.59;4970815;29;20059;-62
2022/07/24 10:30:11;;;;;;;3.10;2.88;;;;;;;-141.48;100.00;69781.59;4970439;29;20027;-61
2022/07/24 10:32:42;;;;;;;3.03;2.83;;;;;;;-141.48;100.00;69781.59;4970757;29;20122;-61
2022/07/24 10:35:24;;;;;;;3.08;2.97;;;;;;;-141.48;100.00;69781.59;4970232;29;20126;-63
2022/07/24 10:38:28;;;;;;;2.75;2.65;;;;;;;-141.48;100.00;69781.59;4970342;29;20045;-62
2022/07/24 10:41:05;;;;;;;3.88;3.67;;;;;;;-141.48;100.00;69781.59;4970687;29;20050;-63
2022/07/24 10:43:35;;;;;;;3.17;3.03;;;;;;;-141.48;100.00;69781.59;4970179;29;20026;-62
2022/07/24 10:46:06;;;;;;;3.92;3.72;;;;;;;-141.48;100.00;69781.59;4954452;29;20030;-62
2022/07/24 10:48:39;;;;;;;5.10;4.47;;;;;;;-141.48;100.00;69781.59;4971278;29;20481;-63
2022/07/24 10:51:13;;;;;;;3.50;3.20;;;;;;;-141.48;100.00;69781.59;4970056;29;20026;-62
2022/07/24 10:53:56;;;;;;;2.95;2.85;;;;;;;-141.48;100.00;69781.59;4988571;29;20438;-65
2022/07/24 10:56:42;;;;;;;3.42;3.22;;;;;;;-141.48;100.00;69781.59;4986508;29;20066;-65
2022/07/24 10:59:13;;;;;;;2.92;2.78;;;;;;;-141.48;100.00;69781.59;4971597;29;20031;-66
2022/07/24 11:01:47;;;;;;;3.95;3.60;;;;;;;-141.48;100.00;69781.59;4971269;29;20042;-65
2022/07/24 11:04:23;;;;;;;4.90;4.60;;;;;;;-141.48;100.00;69781.59;4971240;29;20129;-66
2022/07/24 11:07:06;;;;;;;3.05;2.92;;;;;;;-141.48;100.00;69781.59;4954883;29;20045;-67
2022/07/24 11:09:53;;;;;;;3.97;2.47;;;;;;;-141.48;100.00;69781.59;4971254;29;20031;-65
2022/07/24 11:12:29;;;;;;;2.72;2.63;;;;;;;-141.48;100.00;69781.59;4970950;29;20039;-66
2022/07/24 11:17:53;;;;;;;2.75;2.55;;;;;;;-141.48;100.00;69781.59;4960654;29;20075;-66
2022/07/24 11:20:23;;;;;;;2.50;2.40;;;;;;;-141.48;100.00;69781.59;4970575;29;20062;-66
2022/07/24 11:22:57;;;;;;;2.08;1.95;;;;;;;-141.48;100.00;69781.59;4954924;29;20062;-66